Time;durP1;ratioP1;P1;durP2;ratioP2;P2;SDS_P1;SDS_P2;PMS_P1;PMS_P2;Temp;Humidity;BMP_temperature;BMP_pressure;BME280_temperature;BME280_humidity;BME280_pressure;Samples;Min_cycle;Max_cycle;Signal;HPM_P1;HPM_P2
2021/12/12 00:01:35;;;;;;;23.52;8.55;;;10.80;99.90;;;;;;5102570;28;20008;-86
2021/12/12 00:04:14;;;;;;;27.48;9.45;;;10.80;99.90;;;;;;5102371;28;20039;-86
2021/12/12 00:06:51;;;;;;;23.08;8.55;;;10.90;99.90;;;;;;5083793;28;20396;-86
2021/12/12 00:09:25;;;;;;;31.20;9.57;;;10.80;99.90;;;;;;5099718;28;20024;-85
2021/12/12 00:11:51;;;;;;;27.02;10.05;;;10.90;99.90;;;;;;5083376;28;20038;-86
2021/12/12 00:14:24;;;;;;;27.08;8.68;;;10.80;99.90;;;;;;5102215;28;20319;-86
2021/12/12 00:16:53;;;;;;;24.83;8.48;;;10.90;99.90;;;;;;5101746;28;20224;-86
2021/12/12 00:19:20;;;;;;;29.75;9.43;;;10.80;99.90;;;;;;5101688;28;20055;-86
2021/12/12 00:21:49;;;;;;;25.75;8.77;;;10.80;99.90;;;;;;5083967;28;20020;-86
2021/12/12 00:24:16;;;;;;;30.15;9.68;;;10.90;99.90;;;;;;5102334;28;20020;-86
2021/12/12 00:26:43;;;;;;;37.38;10.20;;;10.90;99.90;;;;;;5101179;28;20040;-86
2021/12/12 00:29:11;;;;;;;33.13;9.25;;;10.80;99.90;;;;;;5083808;28;20028;-87
2021/12/12 00:31:37;;;;;;;29.23;9.25;;;10.80;99.90;;;;;;5101938;28;20028;-86
2021/12/12 00:34:05;;;;;;;30.55;9.93;;;10.90;99.90;;;;;;5101224;28;20024;-86
2021/12/12 00:36:33;;;;;;;35.30;10.35;;;10.80;99.90;;;;;;5083502;28;20188;-86
2021/12/12 00:39:07;;;;;;;37.00;11.43;;;10.80;99.90;;;;;;5102098;28;20016;-86
2021/12/12 00:41:44;;;;;;;39.30;10.30;;;10.90;99.90;;;;;;5083795;28;20066;-86
2021/12/12 00:44:12;;;;;;;46.55;12.85;;;10.90;99.90;;;;;;5101125;28;20032;-87
2021/12/12 00:46:39;;;;;;;35.63;10.48;;;10.80;99.90;;;;;;5083539;28;20358;-87
2021/12/12 00:49:06;;;;;;;37.95;11.23;;;10.80;99.90;;;;;;5084151;28;20369;-86
2021/12/12 00:51:36;;;;;;;27.70;10.68;;;10.70;99.90;;;;;;5101250;28;20020;-86
2021/12/12 00:54:03;;;;;;;34.63;10.23;;;10.70;99.90;;;;;;5083539;28;20032;-86
2021/12/12 00:56:31;;;;;;;33.85;11.32;;;10.70;99.90;;;;;;5101514;28;20305;-86
2021/12/12 00:58:57;;;;;;;43.25;11.02;;;10.70;99.90;;;;;;5083156;28;20027;-86
2021/12/12 01:01:35;;;;;;;33.08;11.45;;;10.70;99.90;;;;;;5101167;28;20016;-87
2021/12/12 01:04:09;;;;;;;37.78;10.45;;;10.80;99.90;;;;;;5101874;28;20139;-86
2021/12/12 01:06:36;;;;;;;36.05;11.68;;;10.70;99.90;;;;;;5101806;28;20028;-86
2021/12/12 01:09:07;;;;;;;34.63;12.27;;;10.80;99.90;;;;;;5095139;28;20042;-86
2021/12/12 01:11:41;;;;;;;40.10;12.25;;;10.70;99.90;;;;;;5081677;28;20114;-86
2021/12/12 01:14:10;;;;;;;39.10;12.35;;;10.80;99.90;;;;;;5081233;28;20021;-86
2021/12/12 01:16:49;;;;;;;70.18;12.75;;;10.90;99.90;;;;;;5080069;28;20048;-86
2021/12/12 01:19:27;;;;;;;45.13;10.95;;;10.90;99.90;;;;;;5080802;28;20071;-87
2021/12/12 01:21:58;;;;;;;32.47;9.65;;;10.90;99.90;;;;;;5080750;28;20072;-86
2021/12/12 01:24:30;;;;;;;28.65;9.75;;;11.00;99.90;;;;;;5081292;28;20020;-86
2021/12/12 01:26:57;;;;;;;35.97;10.23;;;11.00;99.90;;;;;;5080999;28;20056;-86
2021/12/12 01:29:23;;;;;;;41.95;10.00;;;11.00;99.90;;;;;;5063356;28;20048;-86
2021/12/12 01:31:50;;;;;;;32.65;10.00;;;11.00;99.90;;;;;;5081160;28;20189;-87
2021/12/12 01:34:24;;;;;;;40.75;11.75;;;11.00;99.90;;;;;;5063259;28;20119;-87
2021/12/12 01:39:53;;;;;;;31.92;10.27;;;11.00;99.90;;;;;;5078881;28;20032;-86
2021/12/12 01:42:29;;;;;;;49.47;12.63;;;11.00;99.90;;;;;;5081015;28;20017;-87
2021/12/12 01:45:13;;;;;;;32.88;10.55;;;11.00;99.90;;;;;;5081764;28;20058;-87
2021/12/12 01:47:48;;;;;;;31.77;10.05;;;11.00;99.90;;;;;;5084927;28;20127;-86
2021/12/12 01:50:28;;;;;;;29.77;10.13;;;11.00;99.90;;;;;;5081786;28;20042;-87
2021/12/12 01:52:56;;;;;;;36.65;10.00;;;11.10;99.90;;;;;;5084490;28;20020;-85
2021/12/12 01:55:30;;;;;;;38.10;10.98;;;11.10;99.90;;;;;;5084361;28;20016;-86
2021/12/12 01:58:02;;;;;;;36.65;11.70;;;11.00;99.90;;;;;;5084053;28;20364;-86
2021/12/12 02:00:33;;;;;;;39.10;10.90;;;11.10;99.90;;;;;;5084804;28;20071;-86
2021/12/12 02:03:00;;;;;;;44.55;10.70;;;11.10;99.90;;;;;;5083849;28;20295;-86
2021/12/12 02:05:28;;;;;;;35.72;9.93;;;11.10;99.90;;;;;;5084104;28;20077;-86
2021/12/12 02:08:02;;;;;;;53.60;13.27;;;11.10;99.90;;;;;;5064962;28;20310;-86
2021/12/12 02:10:30;;;;;;;;;;;11.10;99.90;;;;;;5082200;28;20013;-86
2021/12/12 02:13:01;;;;;;;56.92;21.02;;;11.10;99.90;;;;;;5082885;28;19907;-87
2021/12/12 02:15:27;;;;;;;45.80;13.45;;;11.10;99.90;;;;;;5082183;28;20040;-86
2021/12/12 02:17:53;;;;;;;44.08;12.55;;;11.10;99.90;;;;;;5082655;28;20029;-86
2021/12/12 02:20:38;;;;;;;45.80;13.48;;;11.20;99.90;;;;;;5082530;28;20039;-86
2021/12/12 02:23:14;;;;;;;;;;;11.20;99.90;;;;;;5066453;28;20413;-86
2021/12/12 02:36:51;;;;;;;39.10;12.40;;;11.20;99.90;;;;;;5086202;28;20217;-87
2021/12/12 02:39:17;;;;;;;31.42;12.23;;;11.20;99.90;;;;;;5069737;28;20395;-86
2021/12/12 02:41:48;;;;;;;48.92;12.95;;;11.20;99.90;;;;;;5098326;28;20047;-86
2021/12/12 02:44:15;;;;;;;29.52;11.10;;;11.30;99.90;;;;;;5098865;28;20040;-86
2021/12/12 02:46:43;;;;;;;28.38;11.73;;;11.30;99.90;;;;;;5098406;28;20067;-86
2021/12/12 02:49:25;;;;;;;62.30;13.02;;;11.30;99.90;;;;;;5098678;28;20008;-87
2021/12/12 02:51:52;;;;;;;30.13;11.50;;;11.30;99.90;;;;;;5076374;28;20040;-87
2021/12/12 02:54:18;;;;;;;28.80;11.65;;;11.30;99.90;;;;;;5081102;28;20012;-86
2021/12/12 02:56:47;;;;;;;33.70;11.80;;;11.30;99.90;;;;;;5097919;28;20017;-86
2021/12/12 02:59:16;;;;;;;43.15;11.90;;;11.30;99.90;;;;;;5080854;28;20012;-87
2021/12/12 03:01:57;;;;;;;57.47;13.45;;;11.30;99.90;;;;;;5098297;28;20021;-87
2021/12/12 03:04:25;;;;;;;29.50;11.45;;;11.30;99.90;;;;;;5098450;28;20009;-86
2021/12/12 03:06:52;;;;;;;58.33;13.35;;;11.30;99.90;;;;;;5094177;28;20024;-86
2021/12/12 03:09:22;;;;;;;43.75;12.73;;;11.30;99.90;;;;;;5098455;28;20040;-86
2021/12/12 03:11:52;;;;;;;45.42;11.57;;;11.30;99.90;;;;;;5098273;28;20021;-87
2021/12/12 03:14:18;;;;;;;49.60;13.82;;;11.30;99.90;;;;;;5098375;28;20020;-86
2021/12/12 03:16:45;;;;;;;69.88;14.68;;;11.30;99.90;;;;;;5072330;28;20028;-86
2021/12/12 03:19:11;;;;;;;62.80;14.45;;;11.20;99.90;;;;;;5083276;28;20024;-86
2021/12/12 03:21:42;;;;;;;61.72;13.88;;;11.20;99.90;;;;;;5082347;28;20083;-86
2021/12/12 03:24:21;;;;;;;49.40;11.90;;;11.20;99.90;;;;;;5082519;28;20052;-87
2021/12/12 03:26:50;;;;;;;38.08;11.13;;;11.20;99.90;;;;;;5064415;28;20032;-87
2021/12/12 03:29:17;;;;;;;44.70;10.77;;;11.20;99.90;;;;;;5065241;28;20255;-87
2021/12/12 03:31:48;;;;;;;36.45;9.93;;;11.20;99.90;;;;;;5083171;28;20042;-87
2021/12/12 03:34:17;;;;;;;39.80;9.98;;;11.20;99.90;;;;;;5082345;28;20028;-86
2021/12/12 03:36:45;;;;;;;32.50;9.55;;;11.10;99.90;;;;;;5082296;28;20085;-86
2021/12/12 03:39:18;;;;;;;32.85;9.93;;;11.10;99.90;;;;;;5083200;28;20013;-86
2021/12/12 03:41:44;;;;;;;32.17;8.40;;;11.10;99.90;;;;;;5064513;28;20020;-86
2021/12/12 03:44:19;;;;;;;47.80;9.27;;;11.20;99.90;;;;;;5064901;28;20224;-87
2021/12/12 03:46:47;;;;;;;56.67;9.75;;;11.10;99.90;;;;;;5064361;28;20048;-86
2021/12/12 03:49:13;;;;;;;33.10;9.25;;;11.10;99.90;;;;;;5064968;28;20301;-86
2021/12/12 03:51:41;;;;;;;31.13;10.20;;;11.10;99.90;;;;;;5082575;28;20020;-86
2021/12/12 03:54:07;;;;;;;34.97;12.70;;;11.10;99.90;;;;;;5082157;28;20016;-87
2021/12/12 03:56:33;;;;;;;48.72;15.35;;;11.10;99.90;;;;;;5082101;28;20016;-86
2021/12/12 03:59:01;;;;;;;32.28;13.35;;;11.10;99.90;;;;;;5082659;28;20023;-87
2021/12/12 04:01:35;;;;;;;22.23;9.50;;;11.10;99.90;;;;;;5064480;28;20320;-87
2021/12/12 04:04:09;;;;;;;18.08;8.68;;;11.10;99.90;;;;;;5082467;28;20020;-86
2021/12/12 04:06:35;;;;;;;20.42;8.63;;;11.10;99.90;;;;;;5081555;28;20316;-87
2021/12/12 04:09:04;;;;;;;26.13;8.85;;;11.00;99.90;;;;;;5081612;28;20239;-87
2021/12/12 04:11:40;;;;;;;25.48;7.72;;;11.00;99.90;;;;;;5081329;28;20029;-87
2021/12/12 04:14:11;;;;;;;14.35;5.28;;;11.00;99.90;;;;;;5082345;28;20020;-87
2021/12/12 04:16:40;;;;;;;46.97;6.07;;;10.90;99.90;;;;;;5081233;28;20216;-86
2021/12/12 04:19:06;;;;;;;18.13;5.40;;;10.90;99.90;;;;;;5081463;28;20058;-86
2021/12/12 04:21:34;;;;;;;43.85;10.45;;;10.90;99.90;;;;;;5081676;28;20023;-86
2021/12/12 04:24:00;;;;;;;22.83;10.43;;;10.90;99.90;;;;;;5063808;28;20225;-86
2021/12/12 04:26:30;;;;;;;48.47;11.55;;;10.90;99.90;;;;;;5081055;28;20384;-86
2021/12/12 04:28:59;;;;;;;18.83;10.02;;;10.90;99.90;;;;;;5081895;28;20369;-87
2021/12/12 04:31:25;;;;;;;27.77;8.00;;;10.90;99.90;;;;;;5064438;28;20316;-87
2021/12/12 04:33:52;;;;;;;11.90;5.65;;;10.90;99.90;;;;;;5081495;28;20381;-87
2021/12/12 04:36:22;;;;;;;12.68;6.50;;;10.90;99.90;;;;;;5081580;28;20031;-86
2021/12/12 04:38:48;;;;;;;15.70;7.32;;;10.90;99.90;;;;;;5063670;28;20024;-86
2021/12/12 04:41:14;;;;;;;119.18;11.13;;;10.90;99.90;;;;;;5081768;28;20040;-87
2021/12/12 04:43:43;;;;;;;17.35;7.13;;;10.90;99.90;;;;;;5081800;28;20320;-87
2021/12/12 04:46:20;;;;;;;31.80;6.68;;;10.90;99.90;;;;;;5081874;28;20336;-87
2021/12/12 04:51:39;;;;;;;30.20;6.40;;;10.90;99.90;;;;;;5081792;28;20023;-87
2021/12/12 04:54:19;;;;;;;40.95;6.10;;;11.00;99.90;;;;;;5081541;28;20290;-87
2021/12/12 04:56:59;;;;;;;11.90;5.82;;;10.90;99.90;;;;;;5081454;28;20031;-87
2021/12/12 04:59:32;;;;;;;14.70;6.45;;;11.00;99.90;;;;;;5081721;28;20031;-87
2021/12/12 05:02:19;;;;;;;29.77;6.45;;;11.00;99.90;;;;;;5081878;28;20020;-87
2021/12/12 05:04:59;;;;;;;32.40;6.95;;;11.00;99.90;;;;;;5081779;28;20020;-87
2021/12/12 05:07:36;;;;;;;32.92;6.97;;;11.00;99.90;;;;;;5081476;28;20256;-87
2021/12/12 05:10:37;;;;;;;35.17;6.85;;;11.00;99.90;;;;;;5080883;28;20024;-87
2021/12/12 05:13:11;;;;;;;21.35;6.20;;;11.00;99.90;;;;;;5081314;28;20079;-86
2021/12/12 05:15:45;;;;;;;17.95;7.82;;;11.00;99.90;;;;;;5081991;28;20210;-86
2021/12/12 05:18:19;;;;;;;31.38;7.97;;;11.00;99.90;;;;;;5081225;28;20024;-86
2021/12/12 05:20:48;;;;;;;32.42;6.38;;;11.00;99.90;;;;;;5085494;28;20023;-86
2021/12/12 05:23:20;;;;;;;57.40;6.90;;;11.00;99.90;;;;;;5085691;28;20059;-86
2021/12/12 05:25:50;;;;;;;52.05;6.22;;;11.00;99.90;;;;;;5084690;28;20312;-85
2021/12/12 05:28:19;;;;;;;39.58;5.90;;;11.00;99.90;;;;;;5085968;28;20062;-86
2021/12/12 05:30:46;;;;;;;33.38;5.82;;;11.00;99.90;;;;;;5084488;28;20143;-86
2021/12/12 05:33:15;;;;;;;16.48;5.60;;;11.00;99.90;;;;;;5067192;28;20139;-86
2021/12/12 05:35:41;;;;;;;14.32;6.45;;;11.00;99.90;;;;;;5082546;28;20020;-86
2021/12/12 05:38:08;;;;;;;22.70;9.48;;;11.00;99.90;;;;;;5084780;28;20300;-86
2021/12/12 05:40:37;;;;;;;101.65;11.10;;;11.00;99.90;;;;;;5067479;28;20024;-86
2021/12/12 05:43:05;;;;;;;40.53;7.88;;;11.00;99.90;;;;;;5085080;28;20208;-86
2021/12/12 05:45:34;;;;;;;24.23;6.95;;;10.90;99.90;;;;;;5084670;28;20012;-86
2021/12/12 05:48:01;;;;;;;21.38;6.63;;;10.90;99.90;;;;;;5084420;28;20079;-87
2021/12/12 05:50:27;;;;;;;13.85;6.85;;;11.00;99.90;;;;;;5085105;28;20016;-86
2021/12/12 05:52:54;;;;;;;23.42;7.45;;;10.90;99.90;;;;;;5067246;28;20044;-86
2021/12/12 05:55:22;;;;;;;12.52;5.90;;;10.90;99.90;;;;;;5084886;28;20079;-86
2021/12/12 05:57:55;;;;;;;14.98;5.50;;;10.80;99.90;;;;;;5084721;28;20020;-86
2021/12/12 06:00:24;;;;;;;12.85;5.32;;;10.80;99.90;;;;;;5083686;28;20087;-86
2021/12/12 06:02:51;;;;;;;12.43;5.60;;;10.80;99.90;;;;;;5065261;28;20024;-86
2021/12/12 06:05:17;;;;;;;11.32;4.88;;;10.90;99.90;;;;;;5083288;28;20362;-87
2021/12/12 06:07:43;;;;;;;14.50;6.05;;;10.90;99.90;;;;;;5065081;28;20028;-86
2021/12/12 06:10:13;;;;;;;12.85;5.80;;;10.90;99.90;;;;;;5082951;28;20367;-86
2021/12/12 06:12:40;;;;;;;15.90;5.72;;;10.90;99.90;;;;;;5082710;28;20024;-86
2021/12/12 06:15:13;;;;;;;11.48;5.95;;;10.90;99.90;;;;;;5083672;28;20013;-86
2021/12/12 06:17:40;;;;;;;12.95;6.03;;;10.90;99.90;;;;;;5084103;28;20122;-86
2021/12/12 06:20:09;;;;;;;13.32;6.68;;;11.00;99.90;;;;;;5083516;28;20036;-87
2021/12/12 06:22:35;;;;;;;13.43;5.65;;;11.00;99.90;;;;;;5083109;28;20024;-86
2021/12/12 06:25:03;;;;;;;13.02;5.68;;;11.00;99.90;;;;;;5084275;28;20273;-86
2021/12/12 06:27:29;;;;;;;34.58;7.50;;;11.00;99.90;;;;;;5083952;28;20024;-86
2021/12/12 06:29:56;;;;;;;13.93;6.78;;;11.00;99.90;;;;;;5083928;28;20032;-86
2021/12/12 06:32:22;;;;;;;19.25;7.18;;;11.00;99.90;;;;;;5083646;28;20016;-86
2021/12/12 06:34:50;;;;;;;24.58;7.68;;;11.00;99.90;;;;;;5083911;28;20113;-86
2021/12/12 06:37:17;;;;;;;19.55;6.90;;;11.00;99.90;;;;;;5084410;28;20316;-86
2021/12/12 06:39:44;;;;;;;27.13;6.55;;;11.00;99.90;;;;;;5084115;28;20021;-86
2021/12/12 06:42:12;;;;;;;26.98;7.43;;;11.10;99.90;;;;;;5084000;28;20264;-86
2021/12/12 06:44:40;;;;;;;27.88;7.15;;;11.10;99.90;;;;;;5084217;28;20023;-86
2021/12/12 06:47:08;;;;;;;24.08;7.30;;;11.10;99.90;;;;;;5061681;28;20063;-85
2021/12/12 06:49:34;;;;;;;57.25;7.90;;;11.10;99.90;;;;;;5063335;28;20240;-86
2021/12/12 06:52:03;;;;;;;42.97;9.60;;;11.10;99.90;;;;;;5063392;28;20066;-86
2021/12/12 06:54:30;;;;;;;42.60;13.07;;;11.10;99.90;;;;;;5064031;28;20017;-86
2021/12/12 06:57:00;;;;;;;28.17;12.48;;;11.10;99.90;;;;;;5063511;28;20096;-86
2021/12/12 06:59:32;;;;;;;21.45;10.60;;;11.10;99.90;;;;;;5062578;28;20017;-86
2021/12/12 07:01:59;;;;;;;18.40;8.82;;;11.10;99.90;;;;;;5063667;28;20029;-86
2021/12/12 07:04:27;;;;;;;18.17;8.25;;;11.10;99.90;;;;;;5063089;28;20013;-86
2021/12/12 07:06:57;;;;;;;13.35;7.18;;;11.10;99.90;;;;;;5063234;28;20032;-86
2021/12/12 07:09:24;;;;;;;13.18;7.70;;;11.10;99.90;;;;;;5062214;28;20211;-86
2021/12/12 07:11:50;;;;;;;15.23;8.98;;;11.10;99.90;;;;;;5063560;28;20029;-86
2021/12/12 07:14:17;;;;;;;25.40;9.50;;;11.20;99.90;;;;;;5063388;28;20032;-86
2021/12/12 07:16:44;;;;;;;20.92;7.88;;;11.10;99.90;;;;;;5063146;28;20028;-86
2021/12/12 07:19:13;;;;;;;32.83;8.60;;;11.10;99.90;;;;;;5062945;28;20021;-86
2021/12/12 07:21:41;;;;;;;25.27;8.45;;;11.10;99.90;;;;;;5061797;28;20028;-86
2021/12/12 07:24:08;;;;;;;27.63;7.40;;;11.10;99.90;;;;;;5063416;28;20216;-86
2021/12/12 07:26:34;;;;;;;33.15;8.05;;;11.10;99.90;;;;;;5063325;28;20082;-86
2021/12/12 07:29:00;;;;;;;49.47;7.90;;;11.00;99.90;;;;;;5062577;28;20092;-86
2021/12/12 07:31:35;;;;;;;38.88;7.40;;;11.00;99.90;;;;;;5061132;28;20096;-86
2021/12/12 07:34:05;;;;;;;58.25;7.53;;;10.90;99.90;;;;;;5061890;28;20213;-90
2021/12/12 07:36:34;;;;;;;18.90;6.57;;;10.90;99.90;;;;;;5062339;28;20033;-89
2021/12/12 07:39:06;;;;;;;21.55;6.85;;;11.00;99.90;;;;;;5062851;28;20017;-90
2021/12/12 07:41:33;;;;;;;40.75;6.93;;;10.90;99.90;;;;;;5072604;28;20186;-90
2021/12/12 07:44:03;;;;;;;48.92;9.23;;;10.90;99.90;;;;;;5064051;28;20118;-91
2021/12/12 07:46:30;;;;;;;24.80;8.52;;;10.90;99.90;;;;;;5058770;28;20409;-90
2021/12/12 07:48:55;;;;;;;18.40;8.05;;;10.90;99.90;;;;;;5059989;28;20031;-90
2021/12/12 07:51:24;;;;;;;15.27;8.02;;;10.90;99.90;;;;;;5060272;28;20032;-90
2021/12/12 07:53:59;;;;;;;15.05;7.57;;;11.00;99.90;;;;;;5055498;28;20055;-90
2021/12/12 07:56:29;;;;;;;14.25;6.80;;;11.00;99.90;;;;;;5065239;28;20021;-89
2021/12/12 07:58:58;;;;;;;11.10;6.30;;;11.00;99.90;;;;;;5056671;28;20132;-91
2021/12/12 08:01:25;;;;;;;14.60;8.05;;;11.00;99.90;;;;;;5056178;28;20013;-90
2021/12/12 08:03:54;;;;;;;16.42;8.98;;;11.00;99.90;;;;;;5055159;28;20021;-91
2021/12/12 08:06:20;;;;;;;17.15;9.25;;;10.90;99.90;;;;;;5067501;28;20247;-91
2021/12/12 08:08:48;;;;;;;19.23;10.45;;;11.00;99.90;;;;;;5071183;28;20013;-91
2021/12/12 08:11:26;;;;;;;18.52;8.05;;;11.00;99.90;;;;;;5070553;28;20013;-91
2021/12/12 08:13:53;;;;;;;16.70;8.98;;;11.00;99.90;;;;;;5069620;28;20020;-91
2021/12/12 08:16:20;;;;;;;15.15;8.45;;;11.10;99.90;;;;;;5067180;28;20021;-91
2021/12/12 08:18:46;;;;;;;19.08;8.48;;;11.10;99.90;;;;;;5070806;28;20055;-90
2021/12/12 08:21:12;;;;;;;15.10;7.05;;;11.10;99.90;;;;;;5069704;28;20327;-91
2021/12/12 08:23:39;;;;;;;18.95;7.40;;;11.10;99.90;;;;;;5070263;28;20017;-91
2021/12/12 08:26:07;;;;;;;24.02;7.55;;;11.20;99.90;;;;;;5067607;28;20013;-92
2021/12/12 08:28:34;;;;;;;16.77;7.25;;;11.20;99.90;;;;;;5070093;28;20032;-91
2021/12/12 08:31:01;;;;;;;14.80;6.95;;;11.20;99.90;;;;;;5068006;28;20005;-90
2021/12/12 08:33:28;;;;;;;22.90;7.70;;;11.30;99.90;;;;;;5068052;28;20016;-91
2021/12/12 08:35:55;;;;;;;23.45;8.27;;;11.40;99.90;;;;;;5063917;28;20024;-91
2021/12/12 08:38:22;;;;;;;21.85;8.25;;;11.30;99.90;;;;;;5052991;28;20040;-91
2021/12/12 08:40:53;;;;;;;24.50;9.60;;;11.30;99.90;;;;;;5061427;28;20389;-91
2021/12/12 08:43:22;;;;;;;18.83;9.05;;;11.30;99.90;;;;;;5051484;28;20029;-92
2021/12/12 08:45:52;;;;;;;22.45;9.75;;;11.40;99.90;;;;;;5056099;28;20056;-90
2021/12/12 08:48:20;;;;;;;23.45;8.93;;;11.40;99.90;;;;;;5070847;28;20045;-92
2021/12/12 08:50:49;;;;;;;18.38;8.57;;;11.40;99.90;;;;;;5054752;28;20103;-92
2021/12/12 08:53:17;;;;;;;20.98;8.57;;;11.40;99.90;;;;;;5072778;28;20062;-89
2021/12/12 08:55:48;;;;;;;19.63;7.38;;;11.50;99.90;;;;;;5074741;28;20020;-90
2021/12/12 08:58:18;;;;;;;15.77;7.22;;;11.40;99.90;;;;;;5053196;28;20370;-90
2021/12/12 09:00:52;;;;;;;17.05;6.07;;;11.40;99.90;;;;;;5071633;28;20335;-90
2021/12/12 09:03:24;;;;;;;18.05;6.60;;;11.50;99.90;;;;;;5054251;28;20021;-90
2021/12/12 09:05:50;;;;;;;16.48;6.65;;;11.50;99.90;;;;;;5055031;28;20052;-91
2021/12/12 09:08:42;;;;;;;15.05;7.00;;;11.50;99.90;;;;;;5054575;28;20052;-91
2021/12/12 09:11:15;;;;;;;15.88;6.63;;;11.50;99.90;;;;;;5072793;28;20056;-90
2021/12/12 09:13:53;;;;;;;14.32;6.47;;;11.50;99.90;;;;;;5070993;28;20025;-90
2021/12/12 09:16:29;;;;;;;12.07;5.97;;;11.60;99.90;;;;;;5070692;28;20507;-88
2021/12/12 09:19:05;;;;;;;56.67;7.53;;;11.70;99.90;;;;;;5073945;28;20132;-91
2021/12/12 09:21:48;;;;;;;14.75;6.25;;;11.70;99.90;;;;;;5070983;28;20021;-85
2021/12/12 09:24:31;;;;;;;14.05;6.55;;;11.90;99.90;;;;;;5077376;28;20025;-81
2021/12/12 09:27:08;;;;;;;19.60;6.20;;;11.90;99.90;;;;;;5079929;28;20036;-78
2021/12/12 09:29:46;;;;;;;12.45;5.60;;;12.00;99.90;;;;;;5074233;28;20499;-87
2021/12/12 09:32:26;;;;;;;12.63;5.90;;;12.00;99.90;;;;;;5070318;28;20279;-88
2021/12/12 09:34:58;;;;;;;14.38;6.60;;;12.10;99.90;;;;;;5053155;28;20154;-88
2021/12/12 09:37:50;;;;;;;12.25;6.22;;;12.00;99.90;;;;;;5052644;28;20094;-88
2021/12/12 09:41:11;;;;;;;16.45;7.05;;;12.10;99.90;;;;;;5079473;28;20193;-88
2021/12/12 09:44:18;;;;;;;12.23;6.63;;;12.10;99.90;;;;;;5022938;28;20032;-85
2021/12/12 09:47:27;;;;;;;11.10;6.40;;;12.10;99.90;;;;;;5083529;28;20047;-92
2021/12/12 09:53:24;;;;;;;12.88;6.40;;;12.20;99.90;;;;;;5038395;28;20404;-90
2021/12/12 09:56:02;;;;;;;11.00;5.88;;;12.20;99.90;;;;;;5080877;28;20028;-89
2021/12/12 09:58:42;;;;;;;12.52;6.32;;;12.20;99.90;;;;;;5079946;28;20109;-87
2021/12/12 10:01:19;;;;;;;9.63;5.95;;;12.10;99.90;;;;;;5070834;28;20017;-88
2021/12/12 10:03:51;;;;;;;8.30;6.20;;;12.10;99.90;;;;;;5071859;28;20121;-87
2021/12/12 10:06:24;;;;;;;12.38;6.40;;;12.10;99.90;;;;;;5054272;28;20034;-87
2021/12/12 10:09:16;;;;;;;11.57;7.22;;;12.10;99.90;;;;;;5074006;28;20477;-89
2021/12/12 10:11:45;;;;;;;13.40;6.57;;;12.10;99.90;;;;;;5074341;28;20024;-87
2021/12/12 10:14:16;;;;;;;11.65;7.10;;;12.00;99.90;;;;;;5073214;28;20032;-87
2021/12/12 10:17:09;;;;;;;14.73;7.05;;;12.10;99.90;;;;;;5056801;28;20091;-87
2021/12/12 10:19:41;;;;;;;10.00;6.13;;;12.00;99.90;;;;;;5057998;28;20491;-87
2021/12/12 10:22:19;;;;;;;11.40;6.50;;;12.10;99.90;;;;;;5074369;28;20409;-87
2021/12/12 10:25:07;;;;;;;12.85;7.22;;;12.10;99.90;;;;;;5055875;28;20032;-87
2021/12/12 10:27:58;;;;;;;12.35;7.07;;;12.00;99.90;;;;;;5054695;28;20040;-88
2021/12/12 10:30:29;;;;;;;14.27;7.75;;;12.00;99.90;;;;;;5072192;28;20024;-87
2021/12/12 10:33:20;;;;;;;13.02;7.57;;;12.00;99.90;;;;;;5074134;28;20024;-87
2021/12/12 10:36:03;;;;;;;12.93;6.70;;;12.10;99.90;;;;;;5073841;28;20021;-87
2021/12/12 10:38:52;;;;;;;9.43;6.45;;;12.20;99.90;;;;;;5074393;28;20027;-89
2021/12/12 10:41:27;;;;;;;9.98;6.47;;;12.20;99.90;;;;;;5072991;28;20033;-88
2021/12/12 10:44:13;;;;;;;11.35;6.57;;;12.30;99.90;;;;;;5073108;28;20052;-88
2021/12/12 10:46:46;;;;;;;11.48;7.03;;;12.20;99.90;;;;;;5056392;28;20110;-88
2021/12/12 10:49:24;;;;;;;10.30;6.07;;;12.30;99.90;;;;;;5073305;28;20492;-89
2021/12/12 10:51:57;;;;;;;10.18;6.28;;;12.30;99.90;;;;;;5073061;28;20028;-88
2021/12/12 10:54:58;;;;;;;10.13;6.13;;;12.30;99.90;;;;;;5076396;28;20028;-88
2021/12/12 10:57:31;;;;;;;7.80;6.00;;;12.30;99.90;;;;;;5019215;28;20033;-84
2021/12/12 11:00:07;;;;;;;8.82;6.32;;;12.40;99.90;;;;;;5074187;28;20025;-87
2021/12/12 11:02:59;;;;;;;11.35;6.03;;;12.40;99.90;;;;;;5054480;28;20040;-86
2021/12/12 11:05:52;;;;;;;12.55;5.90;;;12.30;99.90;;;;;;5074584;28;20377;-85
2021/12/12 11:08:30;;;;;;;12.60;7.30;;;12.30;99.90;;;;;;5062630;28;20047;-85
2021/12/12 11:10:58;;;;;;;14.15;6.70;;;12.30;99.90;;;;;;5092661;28;20012;-86
2021/12/12 11:13:38;;;;;;;12.50;6.80;;;12.30;99.90;;;;;;5087572;28;20044;-85
2021/12/12 11:16:10;;;;;;;12.05;6.68;;;12.40;99.90;;;;;;5081270;28;20088;-86
2021/12/12 11:19:16;;;;;;;11.55;6.22;;;12.20;99.90;;;;;;5075938;28;20117;-85
2021/12/12 11:21:49;;;;;;;10.95;6.47;;;12.30;99.90;;;;;;4994317;28;20035;-85
2021/12/12 11:24:26;;;;;;;9.23;5.53;;;12.30;99.90;;;;;;5073826;28;20055;-85
2021/12/12 11:27:21;;;;;;;15.75;7.18;;;12.40;99.90;;;;;;5074263;28;20035;-86
2021/12/12 11:29:52;;;;;;;18.40;7.82;;;12.40;99.90;;;;;;5092147;28;20020;-87
2021/12/12 11:32:26;;;;;;;12.43;7.72;;;12.40;99.90;;;;;;5092019;28;20039;-85
2021/12/12 11:34:55;;;;;;;13.07;7.65;;;12.50;99.90;;;;;;5076928;28;20170;-87
2021/12/12 11:38:02;;;;;;;10.20;6.50;;;12.50;99.90;;;;;;5093421;28;20038;-86
2021/12/12 11:40:36;;;;;;;13.35;8.02;;;12.40;99.90;;;;;;5071090;28;20365;-86
2021/12/12 11:43:17;;;;;;;15.63;8.43;;;12.30;99.90;;;;;;5088680;28;20356;-86
2021/12/12 11:45:49;;;;;;;13.05;8.02;;;12.20;99.90;;;;;;5081546;28;20040;-86
2021/12/12 11:48:40;;;;;;;12.52;7.18;;;12.20;99.90;;;;;;5081085;28;20063;-85
2021/12/12 11:51:43;;;;;;;10.25;7.20;;;12.10;99.90;;;;;;5062443;28;20024;-89
2021/12/12 11:54:46;;;;;;;10.45;7.90;;;12.10;99.90;;;;;;5061653;28;20430;-91
2021/12/12 11:57:24;;;;;;;11.20;7.57;;;12.10;99.90;;;;;;5092146;28;20483;-91
2021/12/12 12:00:16;;;;;;;15.75;9.70;;;12.30;99.90;;;;;;5092099;28;20034;-90
2021/12/12 12:03:06;;;;;;;11.18;7.45;;;12.20;99.90;;;;;;5090147;28;20020;-90
2021/12/12 12:05:38;;;;;;;16.63;11.38;;;12.30;99.90;;;;;;5085388;28;20219;-90
2021/12/12 12:08:55;;;;;;;12.52;9.65;;;12.40;99.90;;;;;;5087121;28;20296;-90
2021/12/12 12:11:45;;;;;;;12.57;9.27;;;12.40;99.90;;;;;;5030827;28;20028;-91
2021/12/12 12:14:22;;;;;;;17.80;11.40;;;12.20;99.90;;;;;;5060224;28;20052;-90
2021/12/12 12:16:53;;;;;;;12.68;9.07;;;12.20;99.90;;;;;;5077589;28;20095;-90
2021/12/12 12:19:37;;;;;;;21.00;8.40;;;12.20;99.90;;;;;;5058728;28;20522;-89
2021/12/12 12:22:13;;;;;;;11.45;7.35;;;12.20;99.90;;;;;;5079350;28;20092;-89
2021/12/12 12:25:01;;;;;;;13.27;8.05;;;12.20;99.90;;;;;;5073938;28;20043;-89
2021/12/12 12:27:36;;;;;;;22.55;9.10;;;12.20;99.90;;;;;;5084577;28;20043;-90
2021/12/12 12:30:02;;;;;;;55.53;9.73;;;12.20;99.90;;;;;;5083923;28;20016;-89
2021/12/12 12:33:07;;;;;;;12.55;8.60;;;12.20;99.90;;;;;;5084974;28;20032;-90
2021/12/12 12:36:10;;;;;;;14.50;9.60;;;12.10;99.90;;;;;;5082009;28;20012;-90
2021/12/12 12:39:13;;;;;;;16.08;8.50;;;12.10;99.90;;;;;;5093380;28;20329;-88
2021/12/12 12:42:01;;;;;;;17.40;8.75;;;12.10;99.90;;;;;;5068978;28;20024;-90
2021/12/12 12:45:04;;;;;;;16.40;8.93;;;12.20;99.90;;;;;;5074722;28;20024;-92
2021/12/12 12:48:07;;;;;;;12.90;9.38;;;12.10;99.90;;;;;;5070164;28;20538;-92
2021/12/12 12:50:56;;;;;;;14.32;9.90;;;12.20;99.90;;;;;;5059669;28;20047;-91
2021/12/12 12:53:49;;;;;;;15.40;11.85;;;12.20;99.90;;;;;;5081906;28;20024;-90
2021/12/12 12:56:59;;;;;;;13.15;9.55;;;12.30;99.90;;;;;;5091234;28;20038;-90
2021/12/12 13:00:06;;;;;;;11.68;8.20;;;12.30;99.90;;;;;;5074630;28;20035;-91
2021/12/12 13:02:35;;;;;;;11.23;7.75;;;12.30;99.90;;;;;;5073947;28;20035;-88
2021/12/12 13:05:27;;;;;;;13.13;7.80;;;12.30;99.90;;;;;;5092691;28;20035;-87
2021/12/12 13:08:53;;;;;;;9.95;7.28;;;12.30;99.90;;;;;;5090418;28;20085;-87
2021/12/12 13:11:27;;;;;;;8.98;6.97;;;12.40;99.90;;;;;;5071785;28;20097;-85
2021/12/12 13:14:11;;;;;;;8.32;6.15;;;12.40;99.90;;;;;;5091939;28;20062;-87
2021/12/12 13:16:40;;;;;;;8.73;6.68;;;12.40;99.90;;;;;;5090432;28;20103;-86
2021/12/12 13:19:16;;;;;;;8.77;6.47;;;12.50;99.90;;;;;;5090398;28;20056;-86
2021/12/12 13:22:02;;;;;;;10.15;6.82;;;12.50;99.90;;;;;;5091128;28;20540;-86
2021/12/12 13:24:53;;;;;;;9.68;6.43;;;12.50;99.90;;;;;;5075155;28;20059;-86
2021/12/12 13:30:34;;;;;;;9.25;6.75;;;12.50;99.90;;;;;;5090912;28;20024;-86
2021/12/12 13:33:07;;;;;;;11.55;8.00;;;12.60;99.90;;;;;;5091704;28;20107;-86
2021/12/12 13:36:00;;;;;;;9.98;6.78;;;12.60;99.90;;;;;;5072362;28;20023;-86